sensor_id;sensor_type;location;lat;lon;timestamp;P1;durP1;ratioP1;P2;durP2;ratioP2
50249;SDS011;36133;42.522;27.456;2022-09-17T00:00:35;34.05;;;11.15;;
50249;SDS011;36133;42.522;27.456;2022-09-17T00:03:03;35.05;;;11.60;;
50249;SDS011;36133;42.522;27.456;2022-09-17T00:05:29;33.85;;;12.27;;
50249;SDS011;36133;42.522;27.456;2022-09-17T00:07:54;38.55;;;11.38;;
50249;SDS011;36133;42.522;27.456;2022-09-17T00:10:20;28.95;;;11.73;;
50249;SDS011;36133;42.522;27.456;2022-09-17T00:12:47;27.35;;;13.05;;
50249;SDS011;36133;42.522;27.456;2022-09-17T00:15:13;30.23;;;13.10;;
50249;SDS011;36133;42.522;27.456;2022-09-17T00:17:39;26.08;;;11.20;;
50249;SDS011;36133;42.522;27.456;2022-09-17T00:20:05;35.60;;;12.23;;
50249;SDS011;36133;42.522;27.456;2022-09-17T00:22:35;21.98;;;10.90;;
50249;SDS011;36133;42.522;27.456;2022-09-17T00:25:02;30.63;;;11.27;;
50249;SDS011;36133;42.522;27.456;2022-09-17T00:27:29;27.27;;;11.25;;
50249;SDS011;36133;42.522;27.456;2022-09-17T00:29:55;23.95;;;10.85;;
50249;SDS011;36133;42.522;27.456;2022-09-17T00:32:20;34.40;;;11.52;;
50249;SDS011;36133;42.522;27.456;2022-09-17T00:34:47;25.35;;;10.70;;
50249;SDS011;36133;42.522;27.456;2022-09-17T00:37:16;26.73;;;10.38;;
50249;SDS011;36133;42.522;27.456;2022-09-17T00:39:42;22.20;;;9.40;;
50249;SDS011;36133;42.522;27.456;2022-09-17T00:42:08;21.77;;;8.27;;
50249;SDS011;36133;42.522;27.456;2022-09-17T00:44:49;24.58;;;9.27;;
50249;SDS011;36133;42.522;27.456;2022-09-17T00:49:48;20.77;;;7.80;;
50249;SDS011;36133;42.522;27.456;2022-09-17T00:52:19;29.05;;;8.30;;
50249;SDS011;36133;42.522;27.456;2022-09-17T00:54:57;24.83;;;7.68;;
50249;SDS011;36133;42.522;27.456;2022-09-17T00:57:27;29.40;;;7.78;;
50249;SDS011;36133;42.522;27.456;2022-09-17T00:59:55;17.08;;;7.03;;
50249;SDS011;36133;42.522;27.456;2022-09-17T01:02:20;21.25;;;7.45;;
50249;SDS011;36133;42.522;27.456;2022-09-17T01:04:47;19.60;;;6.15;;
50249;SDS011;36133;42.522;27.456;2022-09-17T01:07:17;26.92;;;6.43;;
50249;SDS011;36133;42.522;27.456;2022-09-17T01:09:52;22.95;;;6.10;;
50249;SDS011;36133;42.522;27.456;2022-09-17T01:12:27;22.55;;;6.72;;
50249;SDS011;36133;42.522;27.456;2022-09-17T01:15:11;15.75;;;6.38;;
50249;SDS011;36133;42.522;27.456;2022-09-17T01:18:06;23.98;;;7.07;;
50249;SDS011;36133;42.522;27.456;2022-09-17T01:24:34;23.90;;;8.63;;
50249;SDS011;36133;42.522;27.456;2022-09-17T01:30:04;26.70;;;7.88;;
50249;SDS011;36133;42.522;27.456;2022-09-17T01:38:31;19.35;;;7.35;;
50249;SDS011;36133;42.522;27.456;2022-09-17T01:41:06;22.17;;;7.85;;
50249;SDS011;36133;42.522;27.456;2022-09-17T01:43:40;27.85;;;9.07;;
50249;SDS011;36133;42.522;27.456;2022-09-17T01:46:15;24.67;;;10.95;;
50249;SDS011;36133;42.522;27.456;2022-09-17T01:48:48;36.95;;;10.57;;
50249;SDS011;36133;42.522;27.456;2022-09-17T01:51:19;25.45;;;12.15;;
50249;SDS011;36133;42.522;27.456;2022-09-17T01:53:55;23.65;;;10.75;;
50249;SDS011;36133;42.522;27.456;2022-09-17T01:56:35;22.95;;;8.98;;
50249;SDS011;36133;42.522;27.456;2022-09-17T02:01:35;24.05;;;8.77;;
50249;SDS011;36133;42.522;27.456;2022-09-17T02:04:07;22.17;;;11.18;;
50249;SDS011;36133;42.522;27.456;2022-09-17T02:06:46;24.15;;;11.07;;
50249;SDS011;36133;42.522;27.456;2022-09-17T02:09:30;31.67;;;13.15;;
50249;SDS011;36133;42.522;27.456;2022-09-17T02:12:02;24.70;;;10.90;;
50249;SDS011;36133;42.522;27.456;2022-09-17T02:14:34;22.02;;;9.82;;
50249;SDS011;36133;42.522;27.456;2022-09-17T02:17:09;27.27;;;11.10;;
50249;SDS011;36133;42.522;27.456;2022-09-17T02:19:46;24.38;;;11.60;;
50249;SDS011;36133;42.522;27.456;2022-09-17T02:22:20;28.85;;;12.75;;
50249;SDS011;36133;42.522;27.456;2022-09-17T02:30:31;25.50;;;9.50;;
50249;SDS011;36133;42.522;27.456;2022-09-17T02:32:56;27.65;;;9.32;;
50249;SDS011;36133;42.522;27.456;2022-09-17T02:35:22;19.42;;;8.80;;
50249;SDS011;36133;42.522;27.456;2022-09-17T02:37:48;18.63;;;8.57;;
50249;SDS011;36133;42.522;27.456;2022-09-17T02:40:14;23.65;;;9.50;;
50249;SDS011;36133;42.522;27.456;2022-09-17T02:50:44;24.27;;;11.13;;
50249;SDS011;36133;42.522;27.456;2022-09-17T02:59:46;23.83;;;12.60;;
50249;SDS011;36133;42.522;27.456;2022-09-17T03:05:20;24.92;;;12.45;;
50249;SDS011;36133;42.522;27.456;2022-09-17T03:07:47;23.90;;;11.93;;
50249;SDS011;36133;42.522;27.456;2022-09-17T03:10:14;20.77;;;11.20;;
50249;SDS011;36133;42.522;27.456;2022-09-17T03:12:40;29.92;;;12.27;;
50249;SDS011;36133;42.522;27.456;2022-09-17T03:15:06;26.90;;;11.88;;
50249;SDS011;36133;42.522;27.456;2022-09-17T03:17:33;29.40;;;12.13;;
50249;SDS011;36133;42.522;27.456;2022-09-17T03:19:58;24.67;;;13.02;;
50249;SDS011;36133;42.522;27.456;2022-09-17T03:22:24;24.83;;;12.20;;
50249;SDS011;36133;42.522;27.456;2022-09-17T03:24:50;33.60;;;13.43;;
50249;SDS011;36133;42.522;27.456;2022-09-17T03:27:15;31.27;;;12.73;;
50249;SDS011;36133;42.522;27.456;2022-09-17T03:29:41;25.65;;;12.13;;
50249;SDS011;36133;42.522;27.456;2022-09-17T03:32:06;28.10;;;12.32;;
50249;SDS011;36133;42.522;27.456;2022-09-17T03:34:32;26.92;;;10.95;;
50249;SDS011;36133;42.522;27.456;2022-09-17T03:36:58;22.92;;;10.88;;
50249;SDS011;36133;42.522;27.456;2022-09-17T03:39:23;25.73;;;10.70;;
50249;SDS011;36133;42.522;27.456;2022-09-17T03:41:49;26.02;;;10.13;;
50249;SDS011;36133;42.522;27.456;2022-09-17T03:44:15;29.58;;;10.20;;
50249;SDS011;36133;42.522;27.456;2022-09-17T03:46:42;21.40;;;10.60;;
50249;SDS011;36133;42.522;27.456;2022-09-17T03:49:08;22.95;;;9.70;;
50249;SDS011;36133;42.522;27.456;2022-09-17T03:51:33;26.90;;;10.65;;
50249;SDS011;36133;42.522;27.456;2022-09-17T03:53:59;28.02;;;10.38;;
50249;SDS011;36133;42.522;27.456;2022-09-17T03:56:24;26.17;;;10.57;;
50249;SDS011;36133;42.522;27.456;2022-09-17T03:58:50;26.52;;;11.10;;
50249;SDS011;36133;42.522;27.456;2022-09-17T04:01:16;27.27;;;11.23;;
50249;SDS011;36133;42.522;27.456;2022-09-17T04:03:42;29.33;;;12.05;;
50249;SDS011;36133;42.522;27.456;2022-09-17T04:06:08;29.88;;;12.55;;
50249;SDS011;36133;42.522;27.456;2022-09-17T04:08:33;35.63;;;13.93;;
50249;SDS011;36133;42.522;27.456;2022-09-17T04:11:00;30.45;;;13.15;;
50249;SDS011;36133;42.522;27.456;2022-09-17T04:13:26;21.45;;;11.95;;
50249;SDS011;36133;42.522;27.456;2022-09-17T04:15:51;38.00;;;13.00;;
50249;SDS011;36133;42.522;27.456;2022-09-17T04:18:17;28.50;;;11.10;;
50249;SDS011;36133;42.522;27.456;2022-09-17T04:20:42;18.23;;;10.60;;
50249;SDS011;36133;42.522;27.456;2022-09-17T04:23:09;17.65;;;9.90;;
50249;SDS011;36133;42.522;27.456;2022-09-17T04:25:36;25.55;;;10.88;;
50249;SDS011;36133;42.522;27.456;2022-09-17T04:28:01;26.05;;;10.80;;
50249;SDS011;36133;42.522;27.456;2022-09-17T04:30:27;26.08;;;10.77;;
50249;SDS011;36133;42.522;27.456;2022-09-17T04:32:52;29.10;;;11.45;;
50249;SDS011;36133;42.522;27.456;2022-09-17T04:35:18;29.67;;;11.45;;
50249;SDS011;36133;42.522;27.456;2022-09-17T04:37:50;24.95;;;11.05;;
50249;SDS011;36133;42.522;27.456;2022-09-17T04:40:17;29.33;;;10.75;;
50249;SDS011;36133;42.522;27.456;2022-09-17T04:42:42;24.27;;;9.57;;
50249;SDS011;36133;42.522;27.456;2022-09-17T04:45:08;24.08;;;10.05;;
50249;SDS011;36133;42.522;27.456;2022-09-17T04:47:36;22.35;;;9.18;;
50249;SDS011;36133;42.522;27.456;2022-09-17T04:50:03;30.70;;;9.63;;
50249;SDS011;36133;42.522;27.456;2022-09-17T04:52:29;19.08;;;8.32;;
50249;SDS011;36133;42.522;27.456;2022-09-17T04:54:55;30.38;;;8.68;;
50249;SDS011;36133;42.522;27.456;2022-09-17T04:57:20;22.77;;;9.00;;
50249;SDS011;36133;42.522;27.456;2022-09-17T04:59:47;26.17;;;9.25;;
50249;SDS011;36133;42.522;27.456;2022-09-17T05:02:13;24.20;;;8.00;;
50249;SDS011;36133;42.522;27.456;2022-09-17T05:04:38;18.92;;;8.20;;
50249;SDS011;36133;42.522;27.456;2022-09-17T05:07:04;17.98;;;7.75;;
50249;SDS011;36133;42.522;27.456;2022-09-17T05:09:29;18.33;;;7.25;;
50249;SDS011;36133;42.522;27.456;2022-09-17T05:11:55;22.00;;;8.40;;
50249;SDS011;36133;42.522;27.456;2022-09-17T05:14:21;19.90;;;8.35;;
50249;SDS011;36133;42.522;27.456;2022-09-17T05:16:46;24.13;;;7.97;;
50249;SDS011;36133;42.522;27.456;2022-09-17T05:19:12;26.48;;;7.80;;
50249;SDS011;36133;42.522;27.456;2022-09-17T05:21:37;20.50;;;7.20;;
50249;SDS011;36133;42.522;27.456;2022-09-17T05:24:03;26.00;;;8.32;;
50249;SDS011;36133;42.522;27.456;2022-09-17T05:26:28;22.27;;;8.65;;
50249;SDS011;36133;42.522;27.456;2022-09-17T05:28:54;22.95;;;9.02;;
50249;SDS011;36133;42.522;27.456;2022-09-17T05:31:20;22.02;;;8.20;;
50249;SDS011;36133;42.522;27.456;2022-09-17T05:33:45;22.90;;;9.05;;
50249;SDS011;36133;42.522;27.456;2022-09-17T05:36:10;23.95;;;9.43;;
50249;SDS011;36133;42.522;27.456;2022-09-17T05:38:36;24.50;;;10.75;;
50249;SDS011;36133;42.522;27.456;2022-09-17T05:41:03;27.98;;;12.52;;
50249;SDS011;36133;42.522;27.456;2022-09-17T05:43:30;32.38;;;12.10;;
50249;SDS011;36133;42.522;27.456;2022-09-17T05:45:59;23.50;;;9.85;;
50249;SDS011;36133;42.522;27.456;2022-09-17T05:48:25;18.70;;;9.07;;
50249;SDS011;36133;42.522;27.456;2022-09-17T05:50:51;21.13;;;10.10;;
50249;SDS011;36133;42.522;27.456;2022-09-17T05:53:19;26.95;;;10.00;;
50249;SDS011;36133;42.522;27.456;2022-09-17T05:55:44;24.38;;;9.15;;
50249;SDS011;36133;42.522;27.456;2022-09-17T05:58:10;21.05;;;8.85;;
50249;SDS011;36133;42.522;27.456;2022-09-17T06:00:38;22.48;;;9.07;;
50249;SDS011;36133;42.522;27.456;2022-09-17T06:03:03;18.80;;;8.32;;
50249;SDS011;36133;42.522;27.456;2022-09-17T06:05:29;28.23;;;8.82;;
50249;SDS011;36133;42.522;27.456;2022-09-17T06:07:55;18.92;;;8.10;;
50249;SDS011;36133;42.522;27.456;2022-09-17T06:10:20;16.35;;;8.48;;
50249;SDS011;36133;42.522;27.456;2022-09-17T06:12:46;18.48;;;6.65;;
50249;SDS011;36133;42.522;27.456;2022-09-17T06:15:11;23.23;;;8.45;;
50249;SDS011;36133;42.522;27.456;2022-09-17T06:17:39;20.13;;;8.52;;
50249;SDS011;36133;42.522;27.456;2022-09-17T06:20:05;24.67;;;8.50;;
50249;SDS011;36133;42.522;27.456;2022-09-17T06:22:31;21.80;;;8.98;;
50249;SDS011;36133;42.522;27.456;2022-09-17T06:24:57;22.23;;;9.15;;
50249;SDS011;36133;42.522;27.456;2022-09-17T06:27:34;22.73;;;6.95;;
50249;SDS011;36133;42.522;27.456;2022-09-17T06:30:00;21.73;;;8.50;;
50249;SDS011;36133;42.522;27.456;2022-09-17T06:32:26;19.65;;;6.75;;
50249;SDS011;36133;42.522;27.456;2022-09-17T06:34:53;18.40;;;6.93;;
50249;SDS011;36133;42.522;27.456;2022-09-17T06:37:20;24.67;;;8.10;;
50249;SDS011;36133;42.522;27.456;2022-09-17T06:39:51;20.67;;;8.70;;
50249;SDS011;36133;42.522;27.456;2022-09-17T06:42:16;22.27;;;7.85;;
50249;SDS011;36133;42.522;27.456;2022-09-17T06:44:42;24.00;;;7.85;;
50249;SDS011;36133;42.522;27.456;2022-09-17T06:47:07;25.00;;;7.05;;
50249;SDS011;36133;42.522;27.456;2022-09-17T06:49:33;23.15;;;7.07;;
50249;SDS011;36133;42.522;27.456;2022-09-17T06:51:58;16.10;;;6.93;;
50249;SDS011;36133;42.522;27.456;2022-09-17T06:54:24;17.25;;;6.82;;
50249;SDS011;36133;42.522;27.456;2022-09-17T06:56:49;23.77;;;5.95;;
50249;SDS011;36133;42.522;27.456;2022-09-17T06:59:18;26.30;;;7.28;;
50249;SDS011;36133;42.522;27.456;2022-09-17T07:01:43;20.77;;;7.20;;
50249;SDS011;36133;42.522;27.456;2022-09-17T07:04:12;24.35;;;7.43;;
50249;SDS011;36133;42.522;27.456;2022-09-17T07:06:38;23.23;;;7.25;;
50249;SDS011;36133;42.522;27.456;2022-09-17T07:09:03;22.80;;;5.65;;
50249;SDS011;36133;42.522;27.456;2022-09-17T07:11:31;16.30;;;5.20;;
50249;SDS011;36133;42.522;27.456;2022-09-17T07:13:57;23.83;;;5.80;;
50249;SDS011;36133;42.522;27.456;2022-09-17T07:16:23;14.23;;;4.82;;
50249;SDS011;36133;42.522;27.456;2022-09-17T07:18:50;18.08;;;5.53;;
50249;SDS011;36133;42.522;27.456;2022-09-17T07:21:17;15.70;;;5.30;;
50249;SDS011;36133;42.522;27.456;2022-09-17T07:23:45;19.10;;;5.28;;
50249;SDS011;36133;42.522;27.456;2022-09-17T07:26:11;21.00;;;5.70;;
50249;SDS011;36133;42.522;27.456;2022-09-17T07:28:39;22.67;;;6.13;;
50249;SDS011;36133;42.522;27.456;2022-09-17T07:31:05;15.07;;;5.18;;
50249;SDS011;36133;42.522;27.456;2022-09-17T07:33:33;13.75;;;4.90;;
50249;SDS011;36133;42.522;27.456;2022-09-17T07:36:00;19.27;;;5.10;;
50249;SDS011;36133;42.522;27.456;2022-09-17T07:38:27;19.75;;;5.55;;
50249;SDS011;36133;42.522;27.456;2022-09-17T07:41:00;18.33;;;5.15;;
50249;SDS011;36133;42.522;27.456;2022-09-17T07:43:37;21.63;;;5.57;;
50249;SDS011;36133;42.522;27.456;2022-09-17T07:46:04;22.13;;;5.43;;
50249;SDS011;36133;42.522;27.456;2022-09-17T07:48:31;11.98;;;5.35;;
50249;SDS011;36133;42.522;27.456;2022-09-17T07:50:57;13.40;;;4.65;;
50249;SDS011;36133;42.522;27.456;2022-09-17T07:53:23;17.13;;;5.63;;
50249;SDS011;36133;42.522;27.456;2022-09-17T07:55:52;17.50;;;5.78;;
50249;SDS011;36133;42.522;27.456;2022-09-17T07:58:20;20.38;;;6.00;;
50249;SDS011;36133;42.522;27.456;2022-09-17T08:00:47;15.90;;;5.78;;
50249;SDS011;36133;42.522;27.456;2022-09-17T08:03:13;18.67;;;5.38;;
50249;SDS011;36133;42.522;27.456;2022-09-17T08:05:42;15.15;;;5.47;;
50249;SDS011;36133;42.522;27.456;2022-09-17T08:08:07;22.42;;;5.57;;
50249;SDS011;36133;42.522;27.456;2022-09-17T08:10:36;15.15;;;5.63;;
50249;SDS011;36133;42.522;27.456;2022-09-17T08:13:01;14.63;;;6.03;;
50249;SDS011;36133;42.522;27.456;2022-09-17T08:15:27;17.15;;;5.15;;
50249;SDS011;36133;42.522;27.456;2022-09-17T08:17:53;21.17;;;6.30;;
50249;SDS011;36133;42.522;27.456;2022-09-17T08:20:19;13.05;;;5.25;;
50249;SDS011;36133;42.522;27.456;2022-09-17T08:22:56;20.50;;;5.30;;
50249;SDS011;36133;42.522;27.456;2022-09-17T08:25:22;26.38;;;5.47;;
50249;SDS011;36133;42.522;27.456;2022-09-17T08:27:51;13.10;;;5.05;;
50249;SDS011;36133;42.522;27.456;2022-09-17T08:30:22;14.60;;;4.85;;
50249;SDS011;36133;42.522;27.456;2022-09-17T08:32:48;17.08;;;5.20;;
50249;SDS011;36133;42.522;27.456;2022-09-17T08:35:13;12.68;;;4.05;;
50249;SDS011;36133;42.522;27.456;2022-09-17T08:37:42;23.30;;;4.90;;
50249;SDS011;36133;42.522;27.456;2022-09-17T08:40:11;18.27;;;4.95;;
50249;SDS011;36133;42.522;27.456;2022-09-17T08:45:18;13.90;;;4.80;;
50249;SDS011;36133;42.522;27.456;2022-09-17T08:47:45;18.98;;;5.22;;
50249;SDS011;36133;42.522;27.456;2022-09-17T08:55:31;12.90;;;4.57;;
50249;SDS011;36133;42.522;27.456;2022-09-17T09:06:22;13.38;;;4.00;;
50249;SDS011;36133;42.522;27.456;2022-09-17T09:09:04;11.50;;;3.75;;
50249;SDS011;36133;42.522;27.456;2022-09-17T09:11:42;18.50;;;4.93;;
50249;SDS011;36133;42.522;27.456;2022-09-17T09:14:21;15.93;;;4.10;;
50249;SDS011;36133;42.522;27.456;2022-09-17T09:16:52;8.15;;;3.72;;
50249;SDS011;36133;42.522;27.456;2022-09-17T09:19:23;7.82;;;4.13;;
50249;SDS011;36133;42.522;27.456;2022-09-17T09:28:00;9.13;;;4.00;;
50249;SDS011;36133;42.522;27.456;2022-09-17T09:30:45;15.02;;;4.25;;
50249;SDS011;36133;42.522;27.456;2022-09-17T09:33:18;10.10;;;3.72;;
50249;SDS011;36133;42.522;27.456;2022-09-17T09:35:55;13.55;;;4.07;;
50249;SDS011;36133;42.522;27.456;2022-09-17T09:38:28;7.55;;;3.80;;
50249;SDS011;36133;42.522;27.456;2022-09-17T09:41:08;17.30;;;3.88;;
50249;SDS011;36133;42.522;27.456;2022-09-17T09:43:39;9.57;;;3.72;;
50249;SDS011;36133;42.522;27.456;2022-09-17T09:49:07;12.93;;;4.18;;
50249;SDS011;36133;42.522;27.456;2022-09-17T09:56:56;11.57;;;4.20;;
50249;SDS011;36133;42.522;27.456;2022-09-17T09:59:31;9.85;;;3.70;;
50249;SDS011;36133;42.522;27.456;2022-09-17T10:01:58;11.80;;;3.78;;
50249;SDS011;36133;42.522;27.456;2022-09-17T10:04:26;8.55;;;3.17;;
50249;SDS011;36133;42.522;27.456;2022-09-17T10:07:06;10.13;;;4.40;;
50249;SDS011;36133;42.522;27.456;2022-09-17T10:09:34;12.25;;;3.90;;
50249;SDS011;36133;42.522;27.456;2022-09-17T10:14:34;7.07;;;3.22;;
50249;SDS011;36133;42.522;27.456;2022-09-17T10:19:37;16.30;;;3.40;;
50249;SDS011;36133;42.522;27.456;2022-09-17T10:22:19;10.35;;;3.83;;
50249;SDS011;36133;42.522;27.456;2022-09-17T10:27:14;15.15;;;3.90;;
50249;SDS011;36133;42.522;27.456;2022-09-17T10:30:28;11.25;;;3.50;;
50249;SDS011;36133;42.522;27.456;2022-09-17T10:32:34;14.32;;;3.85;;
50249;SDS011;36133;42.522;27.456;2022-09-17T10:37:53;13.20;;;3.75;;
50249;SDS011;36133;42.522;27.456;2022-09-17T10:42:47;10.45;;;3.50;;
50249;SDS011;36133;42.522;27.456;2022-09-17T10:45:25;7.53;;;3.20;;
50249;SDS011;36133;42.522;27.456;2022-09-17T10:47:52;8.95;;;3.17;;
50249;SDS011;36133;42.522;27.456;2022-09-17T10:52:54;12.38;;;3.15;;
50249;SDS011;36133;42.522;27.456;2022-09-17T11:00:26;9.10;;;3.05;;
50249;SDS011;36133;42.522;27.456;2022-09-17T11:03:22;10.98;;;3.60;;
50249;SDS011;36133;42.522;27.456;2022-09-17T11:25:32;18.67;;;5.20;;
50249;SDS011;36133;42.522;27.456;2022-09-17T11:28:21;17.98;;;4.78;;
50249;SDS011;36133;42.522;27.456;2022-09-17T11:42:29;13.98;;;4.63;;
50249;SDS011;36133;42.522;27.456;2022-09-17T11:45:04;14.95;;;4.68;;
50249;SDS011;36133;42.522;27.456;2022-09-17T11:48:21;13.88;;;4.05;;
50249;SDS011;36133;42.522;27.456;2022-09-17T11:53:31;12.68;;;3.80;;
50249;SDS011;36133;42.522;27.456;2022-09-17T12:01:51;15.45;;;4.18;;
50249;SDS011;36133;42.522;27.456;2022-09-17T12:07:14;13.27;;;4.50;;
50249;SDS011;36133;42.522;27.456;2022-09-17T12:09:54;13.50;;;4.28;;
50249;SDS011;36133;42.522;27.456;2022-09-17T12:12:24;15.20;;;3.97;;
50249;SDS011;36133;42.522;27.456;2022-09-17T12:14:53;14.75;;;3.88;;
50249;SDS011;36133;42.522;27.456;2022-09-17T12:17:36;15.50;;;5.38;;
50249;SDS011;36133;42.522;27.456;2022-09-17T12:20:17;12.00;;;3.78;;
50249;SDS011;36133;42.522;27.456;2022-09-17T12:22:45;9.80;;;3.83;;
50249;SDS011;36133;42.522;27.456;2022-09-17T12:25:15;11.18;;;4.05;;
50249;SDS011;36133;42.522;27.456;2022-09-17T12:30:22;7.50;;;3.92;;
50249;SDS011;36133;42.522;27.456;2022-09-17T12:35:45;9.75;;;4.00;;
50249;SDS011;36133;42.522;27.456;2022-09-17T12:47:49;14.88;;;4.22;;
50249;SDS011;36133;42.522;27.456;2022-09-17T12:50:15;12.48;;;3.65;;
50249;SDS011;36133;42.522;27.456;2022-09-17T12:53:22;11.43;;;4.25;;
50249;SDS011;36133;42.522;27.456;2022-09-17T12:56:26;11.38;;;3.38;;
50249;SDS011;36133;42.522;27.456;2022-09-17T12:59:10;8.80;;;3.35;;
50249;SDS011;36133;42.522;27.456;2022-09-17T13:12:29;13.82;;;3.90;;
50249;SDS011;36133;42.522;27.456;2022-09-17T13:15:05;16.75;;;4.60;;
50249;SDS011;36133;42.522;27.456;2022-09-17T13:20:50;15.20;;;5.60;;
50249;SDS011;36133;42.522;27.456;2022-09-17T13:23:37;15.77;;;5.05;;
50249;SDS011;36133;42.522;27.456;2022-09-17T13:26:12;13.68;;;5.20;;
50249;SDS011;36133;42.522;27.456;2022-09-17T13:28:44;13.07;;;5.45;;
50249;SDS011;36133;42.522;27.456;2022-09-17T13:31:12;14.32;;;5.85;;
50249;SDS011;36133;42.522;27.456;2022-09-17T13:42:16;124.50;;;16.02;;
50249;SDS011;36133;42.522;27.456;2022-09-17T13:45:30;20.17;;;4.93;;
50249;SDS011;36133;42.522;27.456;2022-09-17T13:47:51;12.13;;;3.13;;
50249;SDS011;36133;42.522;27.456;2022-09-17T13:50:25;1.45;;;1.25;;
50249;SDS011;36133;42.522;27.456;2022-09-17T13:52:54;0.00;;;0.00;;
50249;SDS011;36133;42.522;27.456;2022-09-17T13:57:59;2.20;;;1.40;;
50249;SDS011;36133;42.522;27.456;2022-09-17T14:13:50;0.00;;;0.00;;
50249;SDS011;36133;42.522;27.456;2022-09-17T14:21:57;0.00;;;0.00;;
50249;SDS011;36133;42.522;27.456;2022-09-17T14:24:27;0.50;;;0.50;;
50249;SDS011;36133;42.522;27.456;2022-09-17T14:33:02;0.00;;;0.00;;
50249;SDS011;36133;42.522;27.456;2022-09-17T14:35:37;15.98;;;1.27;;
50249;SDS011;36133;42.522;27.456;2022-09-17T14:45:50;0.38;;;0.38;;
50249;SDS011;36133;42.522;27.456;2022-09-17T14:48:28;1.33;;;1.23;;
50249;SDS011;36133;42.522;27.456;2022-09-17T14:54:05;0.20;;;0.20;;
50249;SDS011;36133;42.522;27.456;2022-09-17T14:56:43;0.50;;;0.50;;
50249;SDS011;36133;42.522;27.456;2022-09-17T15:05:18;0.77;;;0.77;;
50249;SDS011;36133;42.522;27.456;2022-09-17T15:07:45;0.52;;;0.52;;
50249;SDS011;36133;42.522;27.456;2022-09-17T15:10:13;1.10;;;0.95;;
50249;SDS011;36133;42.522;27.456;2022-09-17T15:12:42;14.25;;;1.13;;
50249;SDS011;36133;42.522;27.456;2022-09-17T15:15:23;0.00;;;0.00;;
50249;SDS011;36133;42.522;27.456;2022-09-17T15:17:51;3.55;;;0.40;;
50249;SDS011;36133;42.522;27.456;2022-09-17T15:20:24;0.00;;;0.00;;
50249;SDS011;36133;42.522;27.456;2022-09-17T15:23:06;1.35;;;1.10;;
50249;SDS011;36133;42.522;27.456;2022-09-17T15:25:34;0.30;;;0.30;;
50249;SDS011;36133;42.522;27.456;2022-09-17T15:28:11;0.17;;;0.17;;
50249;SDS011;36133;42.522;27.456;2022-09-17T15:30:48;2.38;;;1.95;;
50249;SDS011;36133;42.522;27.456;2022-09-17T15:33:14;0.17;;;0.17;;
50249;SDS011;36133;42.522;27.456;2022-09-17T15:35:56;0.03;;;0.03;;
50249;SDS011;36133;42.522;27.456;2022-09-17T15:38:39;0.10;;;0.10;;
50249;SDS011;36133;42.522;27.456;2022-09-17T15:43:51;0.13;;;0.13;;
50249;SDS011;36133;42.522;27.456;2022-09-17T15:46:24;1.00;;;0.70;;
50249;SDS011;36133;42.522;27.456;2022-09-17T15:48:52;15.05;;;7.53;;
50249;SDS011;36133;42.522;27.456;2022-09-17T15:51:23;19.40;;;10.70;;
50249;SDS011;36133;42.522;27.456;2022-09-17T15:53:55;21.42;;;10.30;;
50249;SDS011;36133;42.522;27.456;2022-09-17T15:56:35;25.33;;;9.65;;
50249;SDS011;36133;42.522;27.456;2022-09-17T16:07:27;25.67;;;9.00;;
50249;SDS011;36133;42.522;27.456;2022-09-17T16:12:15;16.85;;;8.48;;
50249;SDS011;36133;42.522;27.456;2022-09-17T16:14:43;17.67;;;8.77;;
50249;SDS011;36133;42.522;27.456;2022-09-17T16:20:14;19.48;;;11.10;;
50249;SDS011;36133;42.522;27.456;2022-09-17T16:22:47;31.15;;;12.80;;
50249;SDS011;36133;42.522;27.456;2022-09-17T16:25:14;22.92;;;9.68;;
50249;SDS011;36133;42.522;27.456;2022-09-17T16:27:51;18.58;;;7.30;;
50249;SDS011;36133;42.522;27.456;2022-09-17T16:30:18;16.40;;;6.95;;
50249;SDS011;36133;42.522;27.456;2022-09-17T16:32:46;15.60;;;7.05;;
50249;SDS011;36133;42.522;27.456;2022-09-17T16:35:13;15.32;;;7.88;;
50249;SDS011;36133;42.522;27.456;2022-09-17T16:37:52;20.95;;;8.30;;
50249;SDS011;36133;42.522;27.456;2022-09-17T16:40:20;17.17;;;8.25;;
50249;SDS011;36133;42.522;27.456;2022-09-17T16:42:46;18.00;;;8.43;;
50249;SDS011;36133;42.522;27.456;2022-09-17T16:45:13;20.70;;;8.63;;
50249;SDS011;36133;42.522;27.456;2022-09-17T16:47:39;17.73;;;7.97;;
50249;SDS011;36133;42.522;27.456;2022-09-17T16:50:06;15.43;;;7.95;;
50249;SDS011;36133;42.522;27.456;2022-09-17T16:52:40;13.87;;;8.63;;
50249;SDS011;36133;42.522;27.456;2022-09-17T16:55:06;22.05;;;8.85;;
50249;SDS011;36133;42.522;27.456;2022-09-17T16:57:32;16.58;;;8.82;;
50249;SDS011;36133;42.522;27.456;2022-09-17T16:59:59;16.42;;;8.50;;
50249;SDS011;36133;42.522;27.456;2022-09-17T17:02:25;24.52;;;10.25;;
50249;SDS011;36133;42.522;27.456;2022-09-17T17:04:50;26.83;;;9.95;;
50249;SDS011;36133;42.522;27.456;2022-09-17T17:07:16;22.05;;;7.88;;
50249;SDS011;36133;42.522;27.456;2022-09-17T17:09:41;18.05;;;8.68;;
50249;SDS011;36133;42.522;27.456;2022-09-17T17:12:07;17.15;;;7.53;;
50249;SDS011;36133;42.522;27.456;2022-09-17T17:14:33;19.00;;;9.18;;
50249;SDS011;36133;42.522;27.456;2022-09-17T17:16:58;18.10;;;7.80;;
50249;SDS011;36133;42.522;27.456;2022-09-17T17:19:24;20.02;;;7.72;;
50249;SDS011;36133;42.522;27.456;2022-09-17T17:21:51;12.45;;;7.03;;
50249;SDS011;36133;42.522;27.456;2022-09-17T17:24:17;18.00;;;7.53;;
50249;SDS011;36133;42.522;27.456;2022-09-17T17:26:43;16.77;;;8.18;;
50249;SDS011;36133;42.522;27.456;2022-09-17T17:29:09;18.58;;;7.40;;
50249;SDS011;36133;42.522;27.456;2022-09-17T17:31:34;19.40;;;7.35;;
50249;SDS011;36133;42.522;27.456;2022-09-17T17:34:00;16.70;;;7.97;;
50249;SDS011;36133;42.522;27.456;2022-09-17T17:36:26;18.20;;;7.90;;
50249;SDS011;36133;42.522;27.456;2022-09-17T17:38:58;15.80;;;7.75;;
50249;SDS011;36133;42.522;27.456;2022-09-17T17:41:24;22.75;;;10.82;;
50249;SDS011;36133;42.522;27.456;2022-09-17T17:43:52;21.13;;;9.20;;
50249;SDS011;36133;42.522;27.456;2022-09-17T17:46:18;17.83;;;7.50;;
50249;SDS011;36133;42.522;27.456;2022-09-17T17:48:44;17.70;;;8.45;;
50249;SDS011;36133;42.522;27.456;2022-09-17T17:51:10;17.83;;;8.35;;
50249;SDS011;36133;42.522;27.456;2022-09-17T17:53:36;16.60;;;8.68;;
50249;SDS011;36133;42.522;27.456;2022-09-17T17:56:06;18.08;;;9.55;;
50249;SDS011;36133;42.522;27.456;2022-09-17T17:58:33;17.33;;;10.75;;
50249;SDS011;36133;42.522;27.456;2022-09-17T18:01:07;20.92;;;10.57;;
50249;SDS011;36133;42.522;27.456;2022-09-17T18:03:35;15.02;;;9.32;;
50249;SDS011;36133;42.522;27.456;2022-09-17T18:06:01;17.10;;;9.02;;
50249;SDS011;36133;42.522;27.456;2022-09-17T18:08:29;14.25;;;9.27;;
50249;SDS011;36133;42.522;27.456;2022-09-17T18:10:55;17.17;;;9.88;;
50249;SDS011;36133;42.522;27.456;2022-09-17T18:13:24;18.60;;;9.90;;
50249;SDS011;36133;42.522;27.456;2022-09-17T18:15:51;18.45;;;10.05;;
50249;SDS011;36133;42.522;27.456;2022-09-17T18:18:22;17.70;;;9.02;;
50249;SDS011;36133;42.522;27.456;2022-09-17T18:20:48;17.30;;;8.10;;
50249;SDS011;36133;42.522;27.456;2022-09-17T18:23:16;21.45;;;7.50;;
50249;SDS011;36133;42.522;27.456;2022-09-17T18:25:50;16.20;;;6.85;;
50249;SDS011;36133;42.522;27.456;2022-09-17T18:28:20;13.18;;;6.65;;